NCAR-RAP Real-Time Weather Data

Output produced by METARs form (10 April 2020  07:22 UTC)
found at http://weather.rap.ucar.edu/surface/
 
KHSV 100653Z AUTO 35009G19KT 10SM CLR 14/02 A2989 RMK AO2 SLP117 T01390017 $
KHSV 100553Z AUTO 31007KT 10SM CLR 14/04 A2989 RMK AO2 SLP117 T01390039 10183 20139 402170139 50000 $
KHSV 100453Z 29005KT 10SM FEW120 OVC200 14/04 A2990 RMK AO2 SLP119 T01440044 $
KHSV 100353Z 28003KT 10SM BKN130 OVC250 14/04 A2989 RMK AO2 SLP118 T01440044 $
KHSV 100253Z 32006KT 10SM BKN120 BKN250 16/03 A2989 RMK AO2 SLP117 T01560033 53018 $
KHSV 100153Z 30005KT 10SM FEW120 BKN250 16/04 A2987 RMK AO2 SLP110 T01610039 $
KHSV 100053Z 29006KT 10SM FEW200 BKN250 17/06 A2984 RMK AO2 SLP100 T01670056 $
KHSV 092353Z 29006KT 10SM BKN250 18/04 A2984 RMK AO2 SLP099 T01830044 10217 20183 56001 $
KHSV 092253Z 29009KT 10SM BKN250 20/02 A2984 RMK AO2 SLP100 T02000022 $
KHSV 092153Z 28009KT 10SM SCT250 21/04 A2983 RMK AO2 SLP097 T02110044 $
KHSV 092053Z 30009KT 10SM FEW250 21/04 A2984 RMK AO2 SLP100 T02110044 58017 $
KHSV 091953Z 28008KT 10SM FEW250 21/05 A2988 RMK AO2 SLP112 T02110050 $
KHSV 091853Z 35009KT 10SM FEW250 21/08 A2989 RMK AO2 SLP114 T02110078 $
KHSV 091753Z 35007KT 10SM FEW250 21/07 A2989 RMK AO2 SLP116 T02060067 10206 20167 58006 $
KHSV 091653Z 36013KT 10SM FEW250 19/06 A2992 RMK AO2 SLP126 T01940061 $
KHSV 091553Z 34013KT 10SM FEW025 SCT250 19/07 A2994 RMK AO2 PK WND 01026/1515 SLP132 T01890067 $
KHSV 091453Z 33010KT 10SM SCT023 SCT250 18/13 A2991 RMK AO2 SLP124 T01830128 53019 $
KHSV 091353Z 35010KT 10SM SCT020 SCT250 18/13 A2988 RMK AO2 PK WND 01029/1323 SLP114 T01780133 $
KHSV 091302Z 35012G18KT 10SM FEW018 BKN250 17/14 A2986 RMK AO2 T01720144 $
KHSV 091253Z 34010KT 10SM BKN015 BKN250 17/15 A2986 RMK AO2 SLP106 T01670150 $
KHSV 091249Z 34009KT 10SM BKN015 BKN250 17/15 A2985 RMK AO2 $
KHSV 091153Z 32006KT 10SM FEW100 BKN250 17/16 A2982 RMK AO2 SLP093 60032 70056 T01670161 10206 20161 53038 $
KHSV 091053Z 35010KT 10SM FEW007 FEW040 BKN250 17/17 A2978 RMK AO2 SLP079 T01670167 $
KHSV 091043Z AUTO 35014KT 9SM SCT007 17/16 A2977 RMK AO2 T01670161 $
KHSV 090953Z AUTO 22007KT 10SM CLR 17/17 A2972 RMK AO2 RAE09 PRESRR SLP058 P0001 T01670167 $
KHSV 090853Z AUTO 16011KT 8SM -RA FEW080 OVC100 17/17 A2971 RMK AO2 PRESFR SLP054 P0015 60031 T01720167 58020 $